sensor_id;sensor_type;location;lat;lon;timestamp;temperature;humidity
15705;DHT22;7952;48.396;12.806;2024-01-30T00:00:41;3.20;51.20
15705;DHT22;7952;48.396;12.806;2024-01-30T00:03:07;3.30;51.20
15705;DHT22;7952;48.396;12.806;2024-01-30T00:05:32;3.20;51.20
15705;DHT22;7952;48.396;12.806;2024-01-30T00:07:58;3.30;51.30
15705;DHT22;7952;48.396;12.806;2024-01-30T00:10:23;3.20;51.20
15705;DHT22;7952;48.396;12.806;2024-01-30T00:12:49;3.20;51.20
15705;DHT22;7952;48.396;12.806;2024-01-30T00:15:14;3.20;51.30
15705;DHT22;7952;48.396;12.806;2024-01-30T00:17:40;3.30;51.30
15705;DHT22;7952;48.396;12.806;2024-01-30T00:20:06;3.20;51.20
15705;DHT22;7952;48.396;12.806;2024-01-30T00:22:32;3.30;51.30
15705;DHT22;7952;48.396;12.806;2024-01-30T00:24:58;3.20;51.30
15705;DHT22;7952;48.396;12.806;2024-01-30T00:27:24;3.20;51.20
15705;DHT22;7952;48.396;12.806;2024-01-30T00:29:49;3.20;51.20
15705;DHT22;7952;48.396;12.806;2024-01-30T00:32:15;3.20;51.30
15705;DHT22;7952;48.396;12.806;2024-01-30T00:34:41;3.20;51.30
15705;DHT22;7952;48.396;12.806;2024-01-30T00:37:07;3.20;51.30
15705;DHT22;7952;48.396;12.806;2024-01-30T00:39:33;3.20;51.30
15705;DHT22;7952;48.396;12.806;2024-01-30T00:41:58;3.20;51.30
15705;DHT22;7952;48.396;12.806;2024-01-30T00:44:24;3.20;51.30
15705;DHT22;7952;48.396;12.806;2024-01-30T00:46:49;3.20;51.30
15705;DHT22;7952;48.396;12.806;2024-01-30T00:49:15;3.20;51.40
15705;DHT22;7952;48.396;12.806;2024-01-30T00:51:40;3.10;51.30
15705;DHT22;7952;48.396;12.806;2024-01-30T00:54:06;3.10;51.30
15705;DHT22;7952;48.396;12.806;2024-01-30T00:56:32;3.10;51.30
15705;DHT22;7952;48.396;12.806;2024-01-30T00:58:57;3.10;51.40
15705;DHT22;7952;48.396;12.806;2024-01-30T01:01:23;3.10;51.40
15705;DHT22;7952;48.396;12.806;2024-01-30T01:03:48;3.10;51.40
15705;DHT22;7952;48.396;12.806;2024-01-30T01:06:14;3.10;51.40
15705;DHT22;7952;48.396;12.806;2024-01-30T01:08:40;3.10;51.40
15705;DHT22;7952;48.396;12.806;2024-01-30T01:11:05;3.10;51.40
15705;DHT22;7952;48.396;12.806;2024-01-30T01:13:31;3.10;51.40
15705;DHT22;7952;48.396;12.806;2024-01-30T01:15:56;3.00;51.40
15705;DHT22;7952;48.396;12.806;2024-01-30T01:18:22;3.10;51.40
15705;DHT22;7952;48.396;12.806;2024-01-30T01:20:47;3.10;51.50
15705;DHT22;7952;48.396;12.806;2024-01-30T01:23:13;3.00;51.40
15705;DHT22;7952;48.396;12.806;2024-01-30T01:25:39;3.00;51.40
15705;DHT22;7952;48.396;12.806;2024-01-30T01:28:04;3.00;51.40
15705;DHT22;7952;48.396;12.806;2024-01-30T01:30:30;3.10;51.50
15705;DHT22;7952;48.396;12.806;2024-01-30T01:32:56;3.10;51.50
15705;DHT22;7952;48.396;12.806;2024-01-30T01:35:23;3.00;51.40
15705;DHT22;7952;48.396;12.806;2024-01-30T01:37:53;3.00;51.40
15705;DHT22;7952;48.396;12.806;2024-01-30T01:40:25;3.00;51.40
15705;DHT22;7952;48.396;12.806;2024-01-30T01:42:52;3.00;51.30
15705;DHT22;7952;48.396;12.806;2024-01-30T01:45:18;3.00;51.40
15705;DHT22;7952;48.396;12.806;2024-01-30T01:47:46;2.90;51.30
15705;DHT22;7952;48.396;12.806;2024-01-30T01:50:13;2.90;51.40
15705;DHT22;7952;48.396;12.806;2024-01-30T01:52:40;2.80;51.30
15705;DHT22;7952;48.396;12.806;2024-01-30T01:55:07;2.90;51.50
15705;DHT22;7952;48.396;12.806;2024-01-30T01:57:33;2.80;51.40
15705;DHT22;7952;48.396;12.806;2024-01-30T02:00:00;2.80;51.50
15705;DHT22;7952;48.396;12.806;2024-01-30T02:02:26;2.80;51.50
15705;DHT22;7952;48.396;12.806;2024-01-30T02:04:56;2.80;51.60
15705;DHT22;7952;48.396;12.806;2024-01-30T02:07:22;2.80;51.50
15705;DHT22;7952;48.396;12.806;2024-01-30T02:09:48;2.80;51.50
15705;DHT22;7952;48.396;12.806;2024-01-30T02:12:13;2.80;51.40
15705;DHT22;7952;48.396;12.806;2024-01-30T02:14:46;2.80;51.40
15705;DHT22;7952;48.396;12.806;2024-01-30T02:17:12;2.80;51.40
15705;DHT22;7952;48.396;12.806;2024-01-30T02:19:38;2.80;51.50
15705;DHT22;7952;48.396;12.806;2024-01-30T02:22:03;2.70;51.40
15705;DHT22;7952;48.396;12.806;2024-01-30T02:24:29;2.70;51.40
15705;DHT22;7952;48.396;12.806;2024-01-30T02:26:55;2.70;51.40
15705;DHT22;7952;48.396;12.806;2024-01-30T02:29:20;2.60;51.40
15705;DHT22;7952;48.396;12.806;2024-01-30T02:31:46;2.60;51.40
15705;DHT22;7952;48.396;12.806;2024-01-30T02:34:12;2.60;51.40
15705;DHT22;7952;48.396;12.806;2024-01-30T02:36:38;2.60;51.40
15705;DHT22;7952;48.396;12.806;2024-01-30T02:39:04;2.50;51.40
15705;DHT22;7952;48.396;12.806;2024-01-30T02:41:30;2.60;51.50
15705;DHT22;7952;48.396;12.806;2024-01-30T02:43:56;2.50;51.50
15705;DHT22;7952;48.396;12.806;2024-01-30T02:46:21;2.50;51.50
15705;DHT22;7952;48.396;12.806;2024-01-30T02:48:47;2.50;51.50
15705;DHT22;7952;48.396;12.806;2024-01-30T02:51:12;2.50;51.50
15705;DHT22;7952;48.396;12.806;2024-01-30T02:53:38;2.50;51.60
15705;DHT22;7952;48.396;12.806;2024-01-30T02:56:04;2.40;51.50
15705;DHT22;7952;48.396;12.806;2024-01-30T02:58:31;2.40;51.50
15705;DHT22;7952;48.396;12.806;2024-01-30T03:00:56;2.40;51.60
15705;DHT22;7952;48.396;12.806;2024-01-30T03:03:22;2.40;51.60
15705;DHT22;7952;48.396;12.806;2024-01-30T03:05:48;2.40;51.60
15705;DHT22;7952;48.396;12.806;2024-01-30T03:08:13;2.40;51.60
15705;DHT22;7952;48.396;12.806;2024-01-30T03:10:39;2.40;51.60
15705;DHT22;7952;48.396;12.806;2024-01-30T03:13:04;2.40;51.60
15705;DHT22;7952;48.396;12.806;2024-01-30T03:15:30;2.40;51.60
15705;DHT22;7952;48.396;12.806;2024-01-30T03:17:55;2.40;51.60
15705;DHT22;7952;48.396;12.806;2024-01-30T03:20:21;2.40;51.60
15705;DHT22;7952;48.396;12.806;2024-01-30T03:22:46;2.40;51.60
15705;DHT22;7952;48.396;12.806;2024-01-30T03:25:12;2.30;51.60
15705;DHT22;7952;48.396;12.806;2024-01-30T03:27:37;2.40;51.60
15705;DHT22;7952;48.396;12.806;2024-01-30T03:30:03;2.30;51.50
15705;DHT22;7952;48.396;12.806;2024-01-30T03:32:29;2.30;51.50
15705;DHT22;7952;48.396;12.806;2024-01-30T03:34:54;2.30;51.60
15705;DHT22;7952;48.396;12.806;2024-01-30T03:37:20;2.30;52.20
15705;DHT22;7952;48.396;12.806;2024-01-30T03:39:45;2.30;51.60
15705;DHT22;7952;48.396;12.806;2024-01-30T03:42:11;2.30;51.60
15705;DHT22;7952;48.396;12.806;2024-01-30T03:44:36;2.30;51.60
15705;DHT22;7952;48.396;12.806;2024-01-30T03:47:02;2.30;51.60
15705;DHT22;7952;48.396;12.806;2024-01-30T03:49:27;2.30;51.60
15705;DHT22;7952;48.396;12.806;2024-01-30T03:51:53;2.30;51.50
15705;DHT22;7952;48.396;12.806;2024-01-30T03:54:19;2.30;51.60
15705;DHT22;7952;48.396;12.806;2024-01-30T03:56:44;2.30;51.60
15705;DHT22;7952;48.396;12.806;2024-01-30T03:59:10;2.30;51.50
15705;DHT22;7952;48.396;12.806;2024-01-30T04:01:35;2.20;51.50
15705;DHT22;7952;48.396;12.806;2024-01-30T04:04:01;2.20;51.50
15705;DHT22;7952;48.396;12.806;2024-01-30T04:06:26;2.20;51.60
15705;DHT22;7952;48.396;12.806;2024-01-30T04:08:52;2.20;51.70
15705;DHT22;7952;48.396;12.806;2024-01-30T04:11:20;2.20;51.70
15705;DHT22;7952;48.396;12.806;2024-01-30T04:13:46;2.20;51.70
15705;DHT22;7952;48.396;12.806;2024-01-30T04:16:20;2.20;51.70
15705;DHT22;7952;48.396;12.806;2024-01-30T04:18:46;2.20;51.70
15705;DHT22;7952;48.396;12.806;2024-01-30T04:21:12;2.20;51.70
15705;DHT22;7952;48.396;12.806;2024-01-30T04:23:37;2.30;51.80
15705;DHT22;7952;48.396;12.806;2024-01-30T04:26:03;2.20;51.60
15705;DHT22;7952;48.396;12.806;2024-01-30T04:28:28;2.20;51.70
15705;DHT22;7952;48.396;12.806;2024-01-30T04:30:55;2.20;51.70
15705;DHT22;7952;48.396;12.806;2024-01-30T04:33:20;2.20;51.60
15705;DHT22;7952;48.396;12.806;2024-01-30T04:35:46;2.20;51.50
15705;DHT22;7952;48.396;12.806;2024-01-30T04:38:12;2.30;51.60
15705;DHT22;7952;48.396;12.806;2024-01-30T04:40:37;2.30;51.60
15705;DHT22;7952;48.396;12.806;2024-01-30T04:43:03;2.20;51.40
15705;DHT22;7952;48.396;12.806;2024-01-30T04:45:28;2.20;51.50
15705;DHT22;7952;48.396;12.806;2024-01-30T04:47:54;2.20;51.50
15705;DHT22;7952;48.396;12.806;2024-01-30T04:50:20;2.10;51.50
15705;DHT22;7952;48.396;12.806;2024-01-30T04:52:45;2.10;51.50
15705;DHT22;7952;48.396;12.806;2024-01-30T04:55:11;2.10;51.50
15705;DHT22;7952;48.396;12.806;2024-01-30T04:57:36;2.10;51.60
15705;DHT22;7952;48.396;12.806;2024-01-30T05:00:02;2.10;51.60
15705;DHT22;7952;48.396;12.806;2024-01-30T05:02:28;2.10;51.60
15705;DHT22;7952;48.396;12.806;2024-01-30T05:04:54;2.10;51.70
15705;DHT22;7952;48.396;12.806;2024-01-30T05:07:20;2.00;51.60
15705;DHT22;7952;48.396;12.806;2024-01-30T05:09:45;2.00;51.70
15705;DHT22;7952;48.396;12.806;2024-01-30T05:12:11;2.10;51.80
15705;DHT22;7952;48.396;12.806;2024-01-30T05:14:36;2.00;51.70
15705;DHT22;7952;48.396;12.806;2024-01-30T05:17:02;2.00;51.70
15705;DHT22;7952;48.396;12.806;2024-01-30T05:19:28;2.00;51.70
15705;DHT22;7952;48.396;12.806;2024-01-30T05:21:54;2.00;51.70
15705;DHT22;7952;48.396;12.806;2024-01-30T05:24:19;2.00;51.70
15705;DHT22;7952;48.396;12.806;2024-01-30T05:26:45;2.00;51.70
15705;DHT22;7952;48.396;12.806;2024-01-30T05:29:10;2.00;51.80
15705;DHT22;7952;48.396;12.806;2024-01-30T05:31:36;2.00;51.70
15705;DHT22;7952;48.396;12.806;2024-01-30T05:34:02;2.00;51.80
15705;DHT22;7952;48.396;12.806;2024-01-30T05:36:27;1.90;51.70
15705;DHT22;7952;48.396;12.806;2024-01-30T05:38:53;2.00;51.80
15705;DHT22;7952;48.396;12.806;2024-01-30T05:41:19;1.90;51.70
15705;DHT22;7952;48.396;12.806;2024-01-30T05:43:44;2.00;51.80
15705;DHT22;7952;48.396;12.806;2024-01-30T05:46:10;1.90;51.70
15705;DHT22;7952;48.396;12.806;2024-01-30T05:48:36;1.90;51.70
15705;DHT22;7952;48.396;12.806;2024-01-30T05:51:02;1.90;51.70
15705;DHT22;7952;48.396;12.806;2024-01-30T05:53:29;1.90;51.70
15705;DHT22;7952;48.396;12.806;2024-01-30T05:55:55;1.90;51.70
15705;DHT22;7952;48.396;12.806;2024-01-30T05:58:20;1.80;51.60
15705;DHT22;7952;48.396;12.806;2024-01-30T06:00:47;1.80;51.60
15705;DHT22;7952;48.396;12.806;2024-01-30T06:03:12;1.80;51.70
15705;DHT22;7952;48.396;12.806;2024-01-30T06:05:38;1.70;51.60
15705;DHT22;7952;48.396;12.806;2024-01-30T06:08:03;1.70;51.70
15705;DHT22;7952;48.396;12.806;2024-01-30T06:10:29;1.70;51.70
15705;DHT22;7952;48.396;12.806;2024-01-30T06:12:55;1.70;51.80
15705;DHT22;7952;48.396;12.806;2024-01-30T06:15:20;1.60;51.70
15705;DHT22;7952;48.396;12.806;2024-01-30T06:17:46;1.70;51.80
15705;DHT22;7952;48.396;12.806;2024-01-30T06:20:11;1.70;51.90
15705;DHT22;7952;48.396;12.806;2024-01-30T06:22:37;1.70;51.90
15705;DHT22;7952;48.396;12.806;2024-01-30T06:25:03;1.70;51.90
15705;DHT22;7952;48.396;12.806;2024-01-30T06:27:28;1.70;51.90
15705;DHT22;7952;48.396;12.806;2024-01-30T06:29:54;1.70;51.90
15705;DHT22;7952;48.396;12.806;2024-01-30T06:32:19;1.70;51.90
15705;DHT22;7952;48.396;12.806;2024-01-30T06:34:45;1.70;51.90
15705;DHT22;7952;48.396;12.806;2024-01-30T06:37:10;1.60;51.80
15705;DHT22;7952;48.396;12.806;2024-01-30T06:39:36;1.60;51.90
15705;DHT22;7952;48.396;12.806;2024-01-30T06:42:02;1.70;52.00
15705;DHT22;7952;48.396;12.806;2024-01-30T06:44:27;1.70;52.00
15705;DHT22;7952;48.396;12.806;2024-01-30T06:46:53;1.70;52.00
15705;DHT22;7952;48.396;12.806;2024-01-30T06:49:19;1.70;51.90
15705;DHT22;7952;48.396;12.806;2024-01-30T06:51:44;1.70;51.90
15705;DHT22;7952;48.396;12.806;2024-01-30T06:54:10;1.70;52.00
15705;DHT22;7952;48.396;12.806;2024-01-30T06:56:36;1.80;52.00
15705;DHT22;7952;48.396;12.806;2024-01-30T06:59:01;2.00;52.20
15705;DHT22;7952;48.396;12.806;2024-01-30T07:01:30;1.90;52.10
15705;DHT22;7952;48.396;12.806;2024-01-30T07:03:56;2.10;52.40
15705;DHT22;7952;48.396;12.806;2024-01-30T07:06:22;2.30;52.70
15705;DHT22;7952;48.396;12.806;2024-01-30T07:08:49;2.50;53.50
15705;DHT22;7952;48.396;12.806;2024-01-30T07:11:19;2.80;53.10
15705;DHT22;7952;48.396;12.806;2024-01-30T07:13:45;3.10;53.30
15705;DHT22;7952;48.396;12.806;2024-01-30T07:16:12;3.40;53.50
15705;DHT22;7952;48.396;12.806;2024-01-30T07:18:37;3.80;53.60
15705;DHT22;7952;48.396;12.806;2024-01-30T07:21:03;4.20;53.80
15705;DHT22;7952;48.396;12.806;2024-01-30T07:23:29;4.60;53.90
15705;DHT22;7952;48.396;12.806;2024-01-30T07:25:55;5.10;53.90
15705;DHT22;7952;48.396;12.806;2024-01-30T07:28:20;5.50;53.80
15705;DHT22;7952;48.396;12.806;2024-01-30T07:30:47;6.00;53.80
15705;DHT22;7952;48.396;12.806;2024-01-30T07:33:13;6.40;53.60
15705;DHT22;7952;48.396;12.806;2024-01-30T07:35:39;6.90;53.60
15705;DHT22;7952;48.396;12.806;2024-01-30T07:38:05;7.40;53.50
15705;DHT22;7952;48.396;12.806;2024-01-30T07:40:30;7.80;53.40
15705;DHT22;7952;48.396;12.806;2024-01-30T07:42:56;8.20;53.30
15705;DHT22;7952;48.396;12.806;2024-01-30T07:45:21;8.60;53.20
15705;DHT22;7952;48.396;12.806;2024-01-30T07:47:48;8.90;52.90
15705;DHT22;7952;48.396;12.806;2024-01-30T07:50:14;9.20;52.90
15705;DHT22;7952;48.396;12.806;2024-01-30T07:52:39;9.50;53.00
15705;DHT22;7952;48.396;12.806;2024-01-30T07:55:05;9.80;53.60
15705;DHT22;7952;48.396;12.806;2024-01-30T07:57:33;10.10;52.10
15705;DHT22;7952;48.396;12.806;2024-01-30T08:00:02;10.40;52.10
15705;DHT22;7952;48.396;12.806;2024-01-30T08:02:28;10.70;52.00
15705;DHT22;7952;48.396;12.806;2024-01-30T08:04:54;11.00;52.00
15705;DHT22;7952;48.396;12.806;2024-01-30T08:07:20;11.30;52.00
15705;DHT22;7952;48.396;12.806;2024-01-30T08:09:47;11.60;52.20
15705;DHT22;7952;48.396;12.806;2024-01-30T08:12:13;11.90;52.20
15705;DHT22;7952;48.396;12.806;2024-01-30T08:14:39;12.20;52.30
15705;DHT22;7952;48.396;12.806;2024-01-30T08:17:07;12.50;52.30
15705;DHT22;7952;48.396;12.806;2024-01-30T09:21:46;15.90;52.40
15705;DHT22;7952;48.396;12.806;2024-01-30T10:29:10;15.40;51.90
15705;DHT22;7952;48.396;12.806;2024-01-30T11:17:12;15.30;49.00
15705;DHT22;7952;48.396;12.806;2024-01-30T11:43:41;13.30;49.50
15705;DHT22;7952;48.396;12.806;2024-01-30T11:46:36;13.10;49.40
15705;DHT22;7952;48.396;12.806;2024-01-30T11:49:02;13.00;49.50
15705;DHT22;7952;48.396;12.806;2024-01-30T11:52:10;12.90;49.60
15705;DHT22;7952;48.396;12.806;2024-01-30T11:57:27;12.80;49.70
15705;DHT22;7952;48.396;12.806;2024-01-30T11:59:53;12.70;49.80
15705;DHT22;7952;48.396;12.806;2024-01-30T12:02:19;12.70;49.80
15705;DHT22;7952;48.396;12.806;2024-01-30T12:04:53;12.60;49.60
15705;DHT22;7952;48.396;12.806;2024-01-30T12:07:19;12.60;49.60
15705;DHT22;7952;48.396;12.806;2024-01-30T12:09:54;12.50;49.50
15705;DHT22;7952;48.396;12.806;2024-01-30T12:12:22;12.40;49.50
15705;DHT22;7952;48.396;12.806;2024-01-30T12:14:49;12.40;49.60
15705;DHT22;7952;48.396;12.806;2024-01-30T12:17:32;12.30;49.60
15705;DHT22;7952;48.396;12.806;2024-01-30T12:20:18;12.30;49.70
15705;DHT22;7952;48.396;12.806;2024-01-30T12:22:46;12.30;49.90
15705;DHT22;7952;48.396;12.806;2024-01-30T12:27:42;12.30;49.80
15705;DHT22;7952;48.396;12.806;2024-01-30T12:30:09;12.30;49.80
15705;DHT22;7952;48.396;12.806;2024-01-30T12:32:49;12.30;49.80
15705;DHT22;7952;48.396;12.806;2024-01-30T12:35:35;12.30;49.90
15705;DHT22;7952;48.396;12.806;2024-01-30T12:38:09;12.30;50.00
15705;DHT22;7952;48.396;12.806;2024-01-30T12:40:35;12.40;50.20
15705;DHT22;7952;48.396;12.806;2024-01-30T12:43:01;12.40;50.00
15705;DHT22;7952;48.396;12.806;2024-01-30T12:45:27;12.40;50.10
15705;DHT22;7952;48.396;12.806;2024-01-30T12:47:56;12.50;50.20
15705;DHT22;7952;48.396;12.806;2024-01-30T12:50:23;12.50;50.10
15705;DHT22;7952;48.396;12.806;2024-01-30T12:52:49;12.50;50.10
15705;DHT22;7952;48.396;12.806;2024-01-30T12:55:16;12.60;50.20
15705;DHT22;7952;48.396;12.806;2024-01-30T12:57:41;12.60;50.10
15705;DHT22;7952;48.396;12.806;2024-01-30T13:00:11;12.60;50.00
15705;DHT22;7952;48.396;12.806;2024-01-30T13:08:59;12.60;49.90
15705;DHT22;7952;48.396;12.806;2024-01-30T13:11:25;12.60;49.90
15705;DHT22;7952;48.396;12.806;2024-01-30T13:14:06;12.50;49.80
15705;DHT22;7952;48.396;12.806;2024-01-30T13:16:31;12.50;49.80
15705;DHT22;7952;48.396;12.806;2024-01-30T13:18:57;12.40;49.70
15705;DHT22;7952;48.396;12.806;2024-01-30T13:21:23;12.40;49.80
15705;DHT22;7952;48.396;12.806;2024-01-30T13:23:48;12.30;49.70
15705;DHT22;7952;48.396;12.806;2024-01-30T13:26:18;12.40;49.80
15705;DHT22;7952;48.396;12.806;2024-01-30T13:28:44;12.40;49.80
15705;DHT22;7952;48.396;12.806;2024-01-30T13:31:10;12.40;49.80
15705;DHT22;7952;48.396;12.806;2024-01-30T13:33:35;12.40;49.60
15705;DHT22;7952;48.396;12.806;2024-01-30T13:36:01;12.30;49.40
15705;DHT22;7952;48.396;12.806;2024-01-30T13:38:27;12.30;49.40
15705;DHT22;7952;48.396;12.806;2024-01-30T13:41:01;12.20;49.30
15705;DHT22;7952;48.396;12.806;2024-01-30T13:43:28;12.20;50.00
15705;DHT22;7952;48.396;12.806;2024-01-30T13:45:53;12.10;49.30
15705;DHT22;7952;48.396;12.806;2024-01-30T13:48:19;12.10;49.40
15705;DHT22;7952;48.396;12.806;2024-01-30T13:50:45;12.10;49.40
15705;DHT22;7952;48.396;12.806;2024-01-30T13:53:11;12.00;49.30
15705;DHT22;7952;48.396;12.806;2024-01-30T13:55:37;11.90;49.30
15705;DHT22;7952;48.396;12.806;2024-01-30T13:58:04;11.90;49.30
15705;DHT22;7952;48.396;12.806;2024-01-30T14:00:30;11.80;49.20
15705;DHT22;7952;48.396;12.806;2024-01-30T14:02:56;11.80;49.20
15705;DHT22;7952;48.396;12.806;2024-01-30T14:05:23;11.70;49.10
15705;DHT22;7952;48.396;12.806;2024-01-30T14:07:50;11.60;49.10
15705;DHT22;7952;48.396;12.806;2024-01-30T14:10:16;11.50;49.10
15705;DHT22;7952;48.396;12.806;2024-01-30T14:12:42;11.40;49.10
15705;DHT22;7952;48.396;12.806;2024-01-30T14:15:14;11.30;49.10
15705;DHT22;7952;48.396;12.806;2024-01-30T14:17:54;11.20;49.10
15705;DHT22;7952;48.396;12.806;2024-01-30T14:23:24;11.10;49.20
15705;DHT22;7952;48.396;12.806;2024-01-30T14:26:36;11.00;49.20
15705;DHT22;7952;48.396;12.806;2024-01-30T14:29:15;10.90;49.30
15705;DHT22;7952;48.396;12.806;2024-01-30T14:34:25;10.70;49.20
15705;DHT22;7952;48.396;12.806;2024-01-30T14:36:52;10.60;49.20
15705;DHT22;7952;48.396;12.806;2024-01-30T14:39:18;10.60;49.30
15705;DHT22;7952;48.396;12.806;2024-01-30T14:41:44;10.50;49.30
15705;DHT22;7952;48.396;12.806;2024-01-30T14:44:10;10.40;49.30
15705;DHT22;7952;48.396;12.806;2024-01-30T14:46:36;10.30;49.30
15705;DHT22;7952;48.396;12.806;2024-01-30T14:49:03;10.30;49.30
15705;DHT22;7952;48.396;12.806;2024-01-30T14:51:31;10.20;49.30
15705;DHT22;7952;48.396;12.806;2024-01-30T14:53:56;10.10;49.30
15705;DHT22;7952;48.396;12.806;2024-01-30T14:56:22;10.10;49.30
15705;DHT22;7952;48.396;12.806;2024-01-30T14:58:48;10.00;49.30
15705;DHT22;7952;48.396;12.806;2024-01-30T15:01:14;10.00;49.40
15705;DHT22;7952;48.396;12.806;2024-01-30T15:03:40;9.90;50.30
15705;DHT22;7952;48.396;12.806;2024-01-30T15:06:06;9.90;50.40
15705;DHT22;7952;48.396;12.806;2024-01-30T15:08:32;9.80;50.70
15705;DHT22;7952;48.396;12.806;2024-01-30T15:10:58;9.80;50.40
15705;DHT22;7952;48.396;12.806;2024-01-30T15:13:24;9.70;50.40
15705;DHT22;7952;48.396;12.806;2024-01-30T15:15:49;9.70;50.40
15705;DHT22;7952;48.396;12.806;2024-01-30T15:18:15;9.60;50.40
15705;DHT22;7952;48.396;12.806;2024-01-30T15:20:41;9.60;50.40
15705;DHT22;7952;48.396;12.806;2024-01-30T15:23:06;9.50;50.40
15705;DHT22;7952;48.396;12.806;2024-01-30T15:25:32;9.50;50.50
15705;DHT22;7952;48.396;12.806;2024-01-30T15:27:57;9.40;50.50
15705;DHT22;7952;48.396;12.806;2024-01-30T15:30:23;9.50;50.60
15705;DHT22;7952;48.396;12.806;2024-01-30T15:32:49;9.30;50.50
15705;DHT22;7952;48.396;12.806;2024-01-30T15:35:14;9.20;50.40
15705;DHT22;7952;48.396;12.806;2024-01-30T15:37:40;9.20;50.50
15705;DHT22;7952;48.396;12.806;2024-01-30T15:40:06;9.10;50.40
15705;DHT22;7952;48.396;12.806;2024-01-30T15:42:32;9.10;50.50
15705;DHT22;7952;48.396;12.806;2024-01-30T15:44:58;9.00;50.40
15705;DHT22;7952;48.396;12.806;2024-01-30T15:47:24;8.90;50.40
15705;DHT22;7952;48.396;12.806;2024-01-30T15:49:50;8.90;50.50
15705;DHT22;7952;48.396;12.806;2024-01-30T15:52:15;8.80;50.50
15705;DHT22;7952;48.396;12.806;2024-01-30T15:54:43;8.70;50.50
15705;DHT22;7952;48.396;12.806;2024-01-30T15:57:09;8.70;50.50
15705;DHT22;7952;48.396;12.806;2024-01-30T15:59:36;8.60;50.50
15705;DHT22;7952;48.396;12.806;2024-01-30T16:02:02;8.60;50.50
15705;DHT22;7952;48.396;12.806;2024-01-30T16:04:28;8.50;50.50
15705;DHT22;7952;48.396;12.806;2024-01-30T16:06:54;8.40;50.40
15705;DHT22;7952;48.396;12.806;2024-01-30T16:09:19;8.40;50.50
15705;DHT22;7952;48.396;12.806;2024-01-30T16:11:45;8.30;50.50
15705;DHT22;7952;48.396;12.806;2024-01-30T16:14:10;8.30;50.60
15705;DHT22;7952;48.396;12.806;2024-01-30T16:16:36;8.20;50.50
15705;DHT22;7952;48.396;12.806;2024-01-30T16:19:02;8.20;50.50
15705;DHT22;7952;48.396;12.806;2024-01-30T16:21:28;8.10;50.50
15705;DHT22;7952;48.396;12.806;2024-01-30T16:23:54;8.10;50.50
15705;DHT22;7952;48.396;12.806;2024-01-30T16:26:19;8.00;50.50
15705;DHT22;7952;48.396;12.806;2024-01-30T16:28:46;8.00;50.60
15705;DHT22;7952;48.396;12.806;2024-01-30T16:31:12;7.90;50.50
15705;DHT22;7952;48.396;12.806;2024-01-30T16:33:43;7.80;50.50
15705;DHT22;7952;48.396;12.806;2024-01-30T16:36:09;7.80;50.60
15705;DHT22;7952;48.396;12.806;2024-01-30T16:38:34;7.80;50.60
15705;DHT22;7952;48.396;12.806;2024-01-30T16:41:00;7.70;50.50
15705;DHT22;7952;48.396;12.806;2024-01-30T16:43:25;7.70;50.60
15705;DHT22;7952;48.396;12.806;2024-01-30T16:45:51;7.60;50.60
15705;DHT22;7952;48.396;12.806;2024-01-30T16:48:16;7.60;50.60
15705;DHT22;7952;48.396;12.806;2024-01-30T16:50:46;7.60;50.60
15705;DHT22;7952;48.396;12.806;2024-01-30T16:53:11;7.50;50.60
15705;DHT22;7952;48.396;12.806;2024-01-30T16:55:37;7.50;50.70
15705;DHT22;7952;48.396;12.806;2024-01-30T16:58:02;7.40;50.60
15705;DHT22;7952;48.396;12.806;2024-01-30T17:00:28;7.40;50.60
15705;DHT22;7952;48.396;12.806;2024-01-30T17:02:53;7.30;50.60
15705;DHT22;7952;48.396;12.806;2024-01-30T17:05:19;7.30;50.70
15705;DHT22;7952;48.396;12.806;2024-01-30T17:07:44;7.20;50.60
15705;DHT22;7952;48.396;12.806;2024-01-30T17:10:11;7.20;50.60
15705;DHT22;7952;48.396;12.806;2024-01-30T17:12:38;7.10;50.70
15705;DHT22;7952;48.396;12.806;2024-01-30T17:15:04;7.10;50.70
15705;DHT22;7952;48.396;12.806;2024-01-30T17:17:30;7.00;51.20
15705;DHT22;7952;48.396;12.806;2024-01-30T17:19:56;7.00;50.70
15705;DHT22;7952;48.396;12.806;2024-01-30T17:22:21;6.90;50.70
15705;DHT22;7952;48.396;12.806;2024-01-30T17:24:47;6.90;50.80
15705;DHT22;7952;48.396;12.806;2024-01-30T17:27:13;6.90;50.80
15705;DHT22;7952;48.396;12.806;2024-01-30T17:29:39;6.80;50.80
15705;DHT22;7952;48.396;12.806;2024-01-30T17:32:05;6.80;50.80
15705;DHT22;7952;48.396;12.806;2024-01-30T17:34:30;6.70;50.70
15705;DHT22;7952;48.396;12.806;2024-01-30T17:36:56;6.70;50.70
15705;DHT22;7952;48.396;12.806;2024-01-30T17:39:21;6.60;50.70
15705;DHT22;7952;48.396;12.806;2024-01-30T17:41:47;6.60;50.80
15705;DHT22;7952;48.396;12.806;2024-01-30T17:44:13;6.50;50.80
15705;DHT22;7952;48.396;12.806;2024-01-30T17:46:40;6.50;50.80
15705;DHT22;7952;48.396;12.806;2024-01-30T17:49:07;6.50;50.80
15705;DHT22;7952;48.396;12.806;2024-01-30T17:51:32;6.40;50.80
15705;DHT22;7952;48.396;12.806;2024-01-30T17:53:58;6.40;50.80
15705;DHT22;7952;48.396;12.806;2024-01-30T17:56:24;6.40;50.90
15705;DHT22;7952;48.396;12.806;2024-01-30T17:58:49;6.30;50.80
15705;DHT22;7952;48.396;12.806;2024-01-30T18:01:16;6.30;50.90
15705;DHT22;7952;48.396;12.806;2024-01-30T18:03:41;6.30;50.90
15705;DHT22;7952;48.396;12.806;2024-01-30T18:06:07;6.30;50.90
15705;DHT22;7952;48.396;12.806;2024-01-30T18:08:33;6.30;50.90
15705;DHT22;7952;48.396;12.806;2024-01-30T18:10:58;6.20;50.90
15705;DHT22;7952;48.396;12.806;2024-01-30T18:13:24;6.20;50.90
15705;DHT22;7952;48.396;12.806;2024-01-30T18:15:50;6.10;50.80
15705;DHT22;7952;48.396;12.806;2024-01-30T18:18:15;6.10;50.80
15705;DHT22;7952;48.396;12.806;2024-01-30T18:20:41;6.10;50.90
15705;DHT22;7952;48.396;12.806;2024-01-30T18:23:07;6.10;50.90
15705;DHT22;7952;48.396;12.806;2024-01-30T18:25:33;6.10;50.90
15705;DHT22;7952;48.396;12.806;2024-01-30T18:27:58;6.00;50.80
15705;DHT22;7952;48.396;12.806;2024-01-30T18:30:26;6.00;50.80
15705;DHT22;7952;48.396;12.806;2024-01-30T18:32:52;6.00;50.80
15705;DHT22;7952;48.396;12.806;2024-01-30T18:35:18;6.00;50.80
15705;DHT22;7952;48.396;12.806;2024-01-30T18:37:44;5.90;50.70
15705;DHT22;7952;48.396;12.806;2024-01-30T18:40:10;5.90;50.80
15705;DHT22;7952;48.396;12.806;2024-01-30T18:42:36;5.90;50.80
15705;DHT22;7952;48.396;12.806;2024-01-30T18:45:01;5.90;50.80
15705;DHT22;7952;48.396;12.806;2024-01-30T18:47:27;5.80;50.80
15705;DHT22;7952;48.396;12.806;2024-01-30T18:49:53;5.80;50.80
15705;DHT22;7952;48.396;12.806;2024-01-30T18:52:18;5.80;50.80
15705;DHT22;7952;48.396;12.806;2024-01-30T18:54:44;5.80;50.80
15705;DHT22;7952;48.396;12.806;2024-01-30T18:57:10;5.70;50.80
15705;DHT22;7952;48.396;12.806;2024-01-30T18:59:35;5.70;50.80
15705;DHT22;7952;48.396;12.806;2024-01-30T19:02:01;5.70;50.80
15705;DHT22;7952;48.396;12.806;2024-01-30T19:04:27;5.70;50.90
15705;DHT22;7952;48.396;12.806;2024-01-30T19:06:52;5.70;50.90
15705;DHT22;7952;48.396;12.806;2024-01-30T19:09:20;5.70;50.90
15705;DHT22;7952;48.396;12.806;2024-01-30T19:11:47;5.70;50.90